Time;durP1;ratioP1;P1;durP2;ratioP2;P2;SDS_P1;SDS_P2;PMS_P1;PMS_P2;Temp;Humidity;BMP_temperature;BMP_pressure;BME280_temperature;BME280_humidity;BME280_pressure;Samples;Min_cycle;Max_cycle;Signal;HPM_P1;HPM_P2
2022/01/25 00:15:08;;;;;;;18.90;11.77;;;2.20;99.90;;;;;;4971927;28;20566;-45
2022/01/25 00:33:28;;;;;;;22.40;14.57;;;1.80;99.90;;;;;;4971583;28;20022;-44
2022/01/25 00:35:54;;;;;;;20.95;12.75;;;1.80;99.90;;;;;;4972197;28;20031;-47
2022/01/25 00:38:20;;;;;;;20.05;14.40;;;1.80;99.90;;;;;;4972418;28;20497;-48
2022/01/25 00:40:45;;;;;;;26.08;15.50;;;1.80;99.90;;;;;;4972666;28;20375;-43
2022/01/25 00:43:11;;;;;;;22.65;14.95;;;1.80;99.90;;;;;;4971870;28;20034;-44
2022/01/25 00:45:37;;;;;;;24.40;14.52;;;1.80;99.90;;;;;;4972716;28;20110;-45
2022/01/25 00:48:05;;;;;;;23.35;15.45;;;1.80;99.90;;;;;;4972819;28;20035;-43
2022/01/25 00:50:38;;;;;;;21.45;14.35;;;1.80;99.90;;;;;;5001410;23;20121;-43
2022/01/25 00:55:32;;;;;;;20.55;14.40;;;1.80;99.90;;;;;;4992435;28;20026;-50
2022/01/25 00:57:59;;;;;;;23.90;15.93;;;1.80;99.90;;;;;;4992443;28;20062;-45
2022/01/25 01:00:27;;;;;;;26.70;17.17;;;1.80;99.90;;;;;;4992060;28;20022;-44
2022/01/25 01:02:53;;;;;;;25.00;16.02;;;1.80;99.90;;;;;;4992656;28;20509;-43
2022/01/25 01:05:20;;;;;;;25.30;16.42;;;1.80;99.90;;;;;;4991109;28;20486;-44
2022/01/25 01:07:45;;;;;;;28.92;18.05;;;1.90;99.90;;;;;;4991078;28;20030;-48
2022/01/25 01:10:15;;;;;;;28.85;18.35;;;1.80;99.90;;;;;;4990949;28;20064;-43
2022/01/25 01:15:34;;;;;;;24.45;16.02;;;1.80;99.90;;;;;;4992740;28;20482;-46
2022/01/25 01:29:19;;;;;;;26.50;17.10;;;1.80;99.90;;;;;;4992192;28;20034;-40
2022/01/25 01:34:41;;;;;;;25.27;17.48;;;1.90;99.90;;;;;;4992217;28;20031;-43
2022/01/25 01:37:29;;;;;;;29.27;17.27;;;1.90;99.90;;;;;;4992130;28;20073;-45
2022/01/25 01:40:12;;;;;;;26.65;17.88;;;1.90;99.90;;;;;;4995544;28;20033;-39
2022/01/25 01:43:04;;;;;;;31.35;18.88;;;1.90;99.90;;;;;;4996169;28;20054;-39
2022/01/25 01:45:46;;;;;;;28.17;17.77;;;2.00;99.90;;;;;;4995837;28;20457;-40
2022/01/25 01:48:25;;;;;;;28.40;17.60;;;1.90;99.90;;;;;;4995708;28;20022;-45
2022/01/25 01:50:51;;;;;;;32.25;17.52;;;1.90;99.90;;;;;;4995545;28;20035;-45
2022/01/25 01:53:16;;;;;;;27.10;17.17;;;1.90;99.90;;;;;;4995507;28;20113;-43
2022/01/25 01:55:42;;;;;;;23.67;17.15;;;1.90;99.90;;;;;;4995858;28;20491;-45
2022/01/25 01:58:08;;;;;;;25.17;17.38;;;2.00;99.90;;;;;;4995752;28;20023;-45
2022/01/25 02:00:38;;;;;;;30.80;17.83;;;2.00;99.90;;;;;;4995370;28;20030;-45
2022/01/25 02:03:05;;;;;;;26.58;17.63;;;1.90;99.90;;;;;;4995304;28;20117;-46
2022/01/25 02:05:32;;;;;;;29.63;16.85;;;1.90;99.90;;;;;;4995680;28;20022;-45
2022/01/25 02:07:58;;;;;;;33.83;18.67;;;1.80;99.90;;;;;;4995481;28;20034;-46
2022/01/25 02:10:24;;;;;;;27.42;17.67;;;1.80;99.90;;;;;;4995386;28;20026;-46
2022/01/25 02:12:51;;;;;;;28.30;16.40;;;1.80;99.90;;;;;;4995025;28;20397;-46
2022/01/25 02:15:17;;;;;;;20.67;15.43;;;1.80;99.90;;;;;;4995235;28;20033;-46
2022/01/25 02:23:12;;;;;;;21.23;15.05;;;1.80;99.90;;;;;;4994838;28;20025;-45
2022/01/25 02:25:38;;;;;;;28.58;16.90;;;1.80;99.90;;;;;;4994942;28;20027;-44
2022/01/25 02:28:03;;;;;;;26.55;16.15;;;1.70;99.90;;;;;;4994854;28;20030;-47
2022/01/25 02:30:29;;;;;;;19.30;13.88;;;1.70;99.90;;;;;;4994644;28;20460;-48
2022/01/25 02:32:54;;;;;;;20.08;14.18;;;1.60;99.90;;;;;;4994434;28;20030;-44
2022/01/25 02:35:20;;;;;;;19.83;12.70;;;1.60;99.90;;;;;;4995091;28;20385;-45
2022/01/25 02:37:45;;;;;;;20.02;13.70;;;1.50;99.90;;;;;;4994237;28;20398;-41
2022/01/25 02:40:11;;;;;;;21.10;14.38;;;1.40;99.90;;;;;;4994633;28;20112;-46
2022/01/25 02:42:36;;;;;;;25.63;16.58;;;1.40;99.90;;;;;;4994809;28;20034;-45
2022/01/25 02:45:03;;;;;;;28.60;18.58;;;1.40;99.90;;;;;;4994594;28;20023;-47
2022/01/25 02:50:13;;;;;;;29.60;16.92;;;1.60;99.90;;;;;;4993913;28;20453;-47
2022/01/25 02:52:38;;;;;;;27.15;18.15;;;1.60;99.90;;;;;;4994481;28;20030;-48
2022/01/25 02:55:04;;;;;;;25.92;16.75;;;1.60;99.90;;;;;;4994257;28;20109;-44
2022/01/25 02:57:30;;;;;;;27.00;18.25;;;1.70;99.90;;;;;;4994479;28;20023;-44
2022/01/25 03:00:01;;;;;;;26.63;17.80;;;1.70;99.90;;;;;;4994194;28;20029;-40
2022/01/25 03:02:26;;;;;;;26.27;17.55;;;1.70;99.90;;;;;;4994159;28;20015;-45
2022/01/25 03:04:52;;;;;;;28.95;18.63;;;1.60;99.90;;;;;;4993743;28;20018;-45
2022/01/25 03:07:17;;;;;;;28.77;17.65;;;1.60;99.90;;;;;;4994115;28;20040;-45
2022/01/25 03:09:43;;;;;;;27.80;18.00;;;1.60;99.90;;;;;;4993929;28;20026;-44
2022/01/25 03:12:12;;;;;;;30.80;18.63;;;1.60;99.90;;;;;;4994010;28;20057;-39
2022/01/25 03:14:57;;;;;;;24.98;16.90;;;1.70;99.90;;;;;;4993668;28;20074;-45
2022/01/25 03:17:28;;;;;;;29.13;18.92;;;1.60;99.90;;;;;;4993863;28;20058;-44
2022/01/25 03:20:04;;;;;;;25.48;17.60;;;1.70;99.90;;;;;;4993773;28;20019;-48
2022/01/25 03:22:55;;;;;;;26.65;17.67;;;1.70;99.90;;;;;;4993872;28;20080;-45
2022/01/25 03:25:17;;;;;;;26.63;16.63;;;1.60;99.90;;;;;;4993681;28;20438;-46
2022/01/25 03:27:43;;;;;;;23.08;16.30;;;1.60;99.90;;;;;;4993656;28;20082;-43
2022/01/25 03:30:09;;;;;;;27.58;17.92;;;1.60;99.90;;;;;;4993373;28;20460;-43
2022/01/25 03:32:34;;;;;;;27.00;16.08;;;1.50;99.90;;;;;;4993649;28;20022;-46
2022/01/25 03:35:00;;;;;;;24.83;14.95;;;1.50;99.90;;;;;;4991943;28;20189;-44
2022/01/25 03:37:25;;;;;;;22.65;14.48;;;1.40;99.90;;;;;;4993532;28;20097;-43
2022/01/25 03:39:51;;;;;;;24.58;15.02;;;1.30;99.90;;;;;;4992975;28;20038;-39
2022/01/25 03:42:18;;;;;;;21.40;13.88;;;1.30;99.90;;;;;;4993419;28;20097;-45
2022/01/25 03:44:44;;;;;;;20.95;14.85;;;1.20;99.90;;;;;;4993119;28;20044;-44
2022/01/25 03:47:14;;;;;;;17.23;13.32;;;1.10;99.90;;;;;;4993361;28;20102;-41
2022/01/25 03:49:50;;;;;;;20.27;13.95;;;1.00;99.90;;;;;;4993058;28;20405;-45
2022/01/25 03:52:25;;;;;;;20.27;14.65;;;1.00;99.90;;;;;;4993184;28;20018;-43
2022/01/25 03:54:51;;;;;;;19.30;13.82;;;;;;;;;;4992896;28;20109;-39
2022/01/25 03:57:18;;;;;;;21.05;13.90;;;0.80;99.90;;;;;;4993109;28;20105;-45
2022/01/25 03:59:44;;;;;;;21.63;13.10;;;0.80;99.90;;;;;;4991599;28;20265;-45
2022/01/25 04:02:10;;;;;;;20.02;14.02;;;0.80;99.90;;;;;;4992663;28;20445;-44
2022/01/25 04:04:36;;;;;;;20.23;13.02;;;0.70;99.90;;;;;;4992764;28;20019;-40
2022/01/25 04:07:08;;;;;;;20.77;14.48;;;0.70;99.90;;;;;;4992968;28;20413;-43
2022/01/25 04:09:35;;;;;;;24.33;14.95;;;0.70;99.90;;;;;;4992947;28;20026;-48
2022/01/25 04:12:01;;;;;;;29.23;15.93;;;0.60;99.90;;;;;;4992877;28;20030;-44
2022/01/25 04:14:28;;;;;;;20.85;14.18;;;0.60;99.90;;;;;;4992707;28;20482;-44
2022/01/25 04:24:44;;;;;;;20.25;14.18;;;0.50;99.90;;;;;;4992865;28;20158;-40
2022/01/25 04:27:31;;;;;;;22.38;13.65;;;0.50;99.90;;;;;;4992716;28;20074;-45
2022/01/25 04:29:56;;;;;;;19.50;13.55;;;0.50;99.90;;;;;;4992322;28;20034;-44
2022/01/25 04:49:02;;;;;;;20.50;13.43;;;0.50;99.90;;;;;;4992484;28;20036;-45
2022/01/25 04:57:16;;;;;;;19.58;13.00;;;0.60;99.90;;;;;;4992425;28;20065;-47
2022/01/25 04:59:53;;;;;;;17.25;12.93;;;0.60;99.90;;;;;;4992154;28;20033;-47
2022/01/25 05:02:31;;;;;;;24.63;14.05;;;0.60;99.90;;;;;;4992274;28;20401;-45
2022/01/25 05:05:10;;;;;;;29.95;16.67;;;0.60;99.90;;;;;;4992473;28;20031;-46
2022/01/25 05:08:02;;;;;;;23.05;14.57;;;0.70;99.90;;;;;;4992305;28;20030;-46
2022/01/25 05:10:35;;;;;;;21.42;13.57;;;0.70;99.90;;;;;;4992154;28;20493;-44
2022/01/25 05:13:30;;;;;;;23.90;13.52;;;0.70;99.90;;;;;;4994972;28;20406;-47
2022/01/25 05:19:21;;;;;;;21.70;14.32;;;0.50;99.90;;;;;;4974288;28;20029;-41
2022/01/25 05:24:36;;;;;;;25.17;14.48;;;0.60;99.90;;;;;;4990717;28;20054;-43
2022/01/25 05:27:03;;;;;;;16.52;12.52;;;0.50;99.90;;;;;;4995957;28;20030;-46
2022/01/25 05:29:29;;;;;;;20.80;13.63;;;0.50;99.90;;;;;;4995823;28;20034;-44
2022/01/25 05:31:55;;;;;;;18.98;13.98;;;0.50;99.90;;;;;;4995654;28;20035;-45
2022/01/25 05:34:21;;;;;;;24.70;15.20;;;0.50;99.90;;;;;;4995840;28;20030;-43
2022/01/25 05:36:47;;;;;;;25.20;15.05;;;0.50;99.90;;;;;;4995844;28;20499;-49
2022/01/25 05:39:23;;;;;;;23.77;14.45;;;0.50;99.90;;;;;;4995583;28;20405;-45
2022/01/25 05:41:56;;;;;;;20.65;13.68;;;0.50;99.90;;;;;;4995558;28;20030;-45
2022/01/25 05:44:27;;;;;;;21.27;13.95;;;0.50;99.90;;;;;;4995429;28;20033;-46
2022/01/25 05:49:24;;;;;;;20.13;13.20;;;0.40;99.90;;;;;;4995771;28;20026;-45
2022/01/25 05:51:50;;;;;;;20.38;14.82;;;0.30;99.90;;;;;;4995347;28;20038;-44
2022/01/25 05:54:16;;;;;;;21.17;14.50;;;0.30;99.90;;;;;;4995035;28;20036;-48
2022/01/25 05:56:42;;;;;;;21.42;15.02;;;0.20;99.90;;;;;;4995369;28;20401;-47
2022/01/25 05:59:07;;;;;;;23.05;15.77;;;0.30;99.90;;;;;;4995417;28;20101;-47
2022/01/25 06:01:35;;;;;;;24.67;15.52;;;0.20;99.90;;;;;;4995231;28;20072;-46
2022/01/25 06:04:00;;;;;;;25.73;13.82;;;0.20;99.90;;;;;;4995106;28;20030;-43
2022/01/25 06:06:27;;;;;;;20.98;14.57;;;0.30;99.90;;;;;;4995251;28;20026;-48
2022/01/25 06:08:53;;;;;;;23.05;14.95;;;0.30;99.90;;;;;;4995079;28;20030;-46
2022/01/25 06:11:20;;;;;;;28.40;17.30;;;0.20;99.90;;;;;;4995053;28;20081;-45
2022/01/25 06:13:46;;;;;;;25.35;14.57;;;0.20;99.90;;;;;;4994852;28;20512;-44
2022/01/25 06:16:11;;;;;;;21.70;14.82;;;0.20;99.90;;;;;;4994924;28;20022;-44
2022/01/25 06:18:37;;;;;;;24.77;15.07;;;0.30;99.90;;;;;;4995120;28;20556;-43
2022/01/25 06:21:02;;;;;;;24.10;14.65;;;0.30;99.90;;;;;;4994721;28;20030;-40
2022/01/25 06:23:28;;;;;;;23.45;13.05;;;0.20;99.90;;;;;;4993851;28;20031;-44
2022/01/25 06:25:54;;;;;;;22.83;13.95;;;0.30;99.90;;;;;;4994784;28;20058;-46
2022/01/25 06:28:19;;;;;;;25.63;15.48;;;0.30;99.90;;;;;;4994755;28;20027;-47
2022/01/25 06:30:45;;;;;;;25.38;15.45;;;0.30;99.90;;;;;;4994712;28;20073;-46
2022/01/25 06:33:11;;;;;;;30.20;20.67;;;0.30;99.90;;;;;;4994458;28;20030;-40
2022/01/25 06:35:36;;;;;;;37.97;24.63;;;0.20;99.90;;;;;;4994646;28;20481;-44
2022/01/25 06:38:03;;;;;;;32.47;20.77;;;0.20;99.90;;;;;;4994315;28;20030;-46
2022/01/25 06:40:28;;;;;;;26.00;16.73;;;0.20;99.90;;;;;;4994447;28;20037;-44
2022/01/25 06:42:54;;;;;;;27.70;16.88;;;0.20;99.90;;;;;;4994504;28;20026;-40
2022/01/25 06:45:22;;;;;;;23.65;14.95;;;0.10;99.90;;;;;;4993308;28;20109;-46
2022/01/25 06:47:49;;;;;;;20.77;14.30;;;0.10;99.90;;;;;;4994429;28;20046;-45
2022/01/25 06:50:17;;;;;;;28.05;14.45;;;0.10;99.90;;;;;;5019815;22;20057;-45
2022/01/25 06:52:43;;;;;;;22.85;14.25;;;0.10;99.90;;;;;;4993800;28;20045;-45
2022/01/25 06:55:12;;;;;;;20.55;13.32;;;0.10;99.90;;;;;;4994527;28;20048;-47
2022/01/25 06:57:37;;;;;;;16.88;11.95;;;-0.10;99.90;;;;;;4994606;28;20038;-43
2022/01/25 07:00:10;;;;;;;19.50;13.13;;;-0.10;99.90;;;;;;4994848;28;20437;-45
2022/01/25 07:02:35;;;;;;;20.70;11.90;;;-0.30;99.90;;;;;;4975213;28;20026;-45
2022/01/25 07:05:02;;;;;;;37.70;15.55;;;-0.30;99.90;;;;;;4974776;28;20031;-48
2022/01/25 07:07:29;;;;;;;31.05;15.73;;;-0.40;99.90;;;;;;4974841;28;20047;-46
2022/01/25 07:09:55;;;;;;;24.50;13.68;;;-0.50;99.90;;;;;;4973751;28;20031;-46
2022/01/25 07:12:20;;;;;;;31.58;15.77;;;-0.50;99.90;;;;;;4974874;28;20039;-46
2022/01/25 07:14:46;;;;;;;37.40;18.17;;;-0.60;99.90;;;;;;4975017;28;20085;-45
2022/01/25 07:17:12;;;;;;;28.42;14.75;;;;;;;;;;4975260;28;20089;-48
2022/01/25 07:19:37;;;;;;;27.20;16.17;;;-0.60;99.90;;;;;;4976552;28;20026;-52
2022/01/25 07:22:03;;;;;;;24.00;13.48;;;-0.80;99.90;;;;;;4981709;28;20023;-49
2022/01/25 07:24:28;;;;;;;26.30;15.02;;;-0.80;99.90;;;;;;4984232;28;20027;-49
2022/01/25 07:26:54;;;;;;;29.70;14.93;;;-0.80;99.90;;;;;;4976596;28;20025;-42
2022/01/25 07:29:20;;;;;;;27.45;15.23;;;-0.80;99.90;;;;;;4974996;28;20457;-50
2022/01/25 07:31:45;;;;;;;23.35;13.52;;;-0.90;99.90;;;;;;4975055;28;20631;-46
2022/01/25 07:34:11;;;;;;;27.02;14.13;;;-0.90;99.90;;;;;;4974539;28;20023;-48
2022/01/25 07:36:38;;;;;;;20.95;13.93;;;-1.00;99.90;;;;;;4973471;28;20110;-42
2022/01/25 07:39:05;;;;;;;28.70;13.85;;;-1.00;99.90;;;;;;4974618;28;20674;-44
2022/01/25 07:41:31;;;;;;;18.60;12.25;;;-0.90;99.90;;;;;;4974456;28;20033;-49
2022/01/25 07:43:59;;;;;;;24.52;12.98;;;-0.90;99.90;;;;;;4974004;28;20023;-48
2022/01/25 07:46:24;;;;;;;23.27;14.32;;;-0.90;99.90;;;;;;4974420;28;20022;-44
2022/01/25 07:48:50;;;;;;;31.33;15.27;;;-0.80;99.90;;;;;;4974355;28;20491;-44
2022/01/25 07:51:17;;;;;;;18.48;12.05;;;-0.80;99.90;;;;;;4973845;28;20045;-47
2022/01/25 07:53:44;;;;;;;18.20;11.50;;;-0.70;99.90;;;;;;4973943;28;20542;-45
2022/01/25 07:56:09;;;;;;;40.70;13.70;;;-0.60;99.90;;;;;;4973961;28;20042;-49
2022/01/25 07:58:35;;;;;;;22.60;12.75;;;-0.50;99.90;;;;;;4974095;28;20518;-45
2022/01/25 08:01:01;;;;;;;19.58;12.80;;;-0.50;99.90;;;;;;4974392;28;20154;-41
2022/01/25 08:03:26;;;;;;;48.95;13.65;;;-0.40;99.90;;;;;;4974230;28;20091;-45
2022/01/25 08:05:52;;;;;;;32.90;14.88;;;-0.50;99.90;;;;;;4974458;28;20109;-44
2022/01/25 08:08:18;;;;;;;100.70;15.90;;;-0.30;99.90;;;;;;4974587;28;20031;-51
2022/01/25 08:10:43;;;;;;;62.03;13.50;;;-0.20;99.90;;;;;;4974483;28;20565;-44
2022/01/25 08:13:09;;;;;;;36.42;12.82;;;-0.40;99.90;;;;;;4973850;28;20030;-46
2022/01/25 08:15:35;;;;;;;69.60;13.15;;;-0.30;99.90;;;;;;4974223;28;20085;-47
2022/01/25 08:18:01;;;;;;;60.70;11.25;;;-0.30;99.90;;;;;;4973910;28;20538;-46
2022/01/25 08:20:26;;;;;;;22.63;10.75;;;-0.40;99.90;;;;;;4973926;28;20117;-43
2022/01/25 08:22:52;;;;;;;25.60;11.43;;;-0.40;99.90;;;;;;4973791;28;20038;-44
2022/01/25 08:25:19;;;;;;;23.55;12.60;;;-0.50;99.90;;;;;;4973873;28;20034;-44
2022/01/25 08:27:45;;;;;;;29.05;12.48;;;-0.50;99.90;;;;;;4973873;28;20023;-48
2022/01/25 08:30:11;;;;;;;20.15;12.18;;;-0.50;99.90;;;;;;4973854;28;20514;-42
2022/01/25 08:32:37;;;;;;;34.35;12.85;;;-0.40;99.90;;;;;;4975183;28;20447;-47
2022/01/25 08:35:03;;;;;;;23.52;11.95;;;-0.30;99.90;;;;;;4974741;28;20031;-46
2022/01/25 08:37:28;;;;;;;38.03;13.38;;;-0.20;99.90;;;;;;4975152;28;20102;-47
2022/01/25 08:39:54;;;;;;;15.07;11.40;;;-0.20;99.90;;;;;;4975613;28;20054;-50
2022/01/25 08:42:20;;;;;;;34.67;12.50;;;-0.10;99.90;;;;;;4975004;28;20059;-41
2022/01/25 08:44:46;;;;;;;20.70;12.20;;;-0.10;99.90;;;;;;4973221;28;20030;-46
2022/01/25 08:47:12;;;;;;;22.67;12.82;;;0.00;99.90;;;;;;4973565;28;20039;-46
2022/01/25 08:49:38;;;;;;;18.85;12.13;;;0.00;99.90;;;;;;4974008;28;20045;-44
2022/01/25 08:52:04;;;;;;;16.30;10.75;;;0.10;99.90;;;;;;4973716;28;20058;-45
2022/01/25 08:54:30;;;;;;;18.40;11.18;;;0.10;99.90;;;;;;4966713;28;20114;-46
2022/01/25 08:56:57;;;;;;;17.08;11.77;;;0.30;99.90;;;;;;4972813;28;20489;-43
2022/01/25 08:59:23;;;;;;;18.05;12.35;;;0.30;99.90;;;;;;4973685;28;20098;-43
2022/01/25 09:01:49;;;;;;;19.65;12.13;;;0.30;99.90;;;;;;4959062;28;20082;-44
2022/01/25 09:04:14;;;;;;;53.95;13.55;;;0.30;99.90;;;;;;4972837;28;20034;-44
2022/01/25 09:06:40;;;;;;;22.95;12.77;;;0.30;99.90;;;;;;4972644;28;20030;-44
2022/01/25 09:09:08;;;;;;;19.40;12.45;;;0.30;99.90;;;;;;4963448;28;20032;-44
2022/01/25 09:11:39;;;;;;;16.85;11.93;;;0.20;99.90;;;;;;4954225;28;20507;-44
2022/01/25 09:14:05;;;;;;;60.00;13.63;;;0.20;99.90;;;;;;4971104;28;20038;-46
2022/01/25 09:16:33;;;;;;;73.82;11.77;;;0.20;99.90;;;;;;4988290;28;20135;-44
2022/01/25 09:18:58;;;;;;;34.30;11.90;;;0.00;99.90;;;;;;4973347;28;20100;-45
2022/01/25 09:21:24;;;;;;;23.35;12.60;;;-0.10;99.90;;;;;;4972791;28;20106;-44
2022/01/25 09:23:50;;;;;;;42.70;11.52;;;-0.10;99.90;;;;;;4964686;28;20031;-46
2022/01/25 09:26:16;;;;;;;19.75;10.48;;;-0.10;99.90;;;;;;4958610;28;20536;-43
2022/01/25 09:28:42;;;;;;;28.52;10.88;;;0.00;99.90;;;;;;4958360;28;20538;-44
2022/01/25 09:31:07;;;;;;;51.92;12.82;;;0.00;99.90;;;;;;4972853;28;20117;-45
2022/01/25 09:33:33;;;;;;;15.93;11.38;;;-0.10;99.90;;;;;;4972679;28;20060;-47
2022/01/25 09:35:59;;;;;;;15.85;10.27;;;-0.10;99.90;;;;;;4972557;28;20027;-47
2022/01/25 09:38:25;;;;;;;16.83;10.27;;;0.00;99.90;;;;;;4972847;28;20023;-44
2022/01/25 09:40:52;;;;;;;22.85;12.02;;;-0.10;99.90;;;;;;4972163;28;20018;-48
2022/01/25 09:43:19;;;;;;;18.55;11.82;;;0.00;99.90;;;;;;4967576;28;20027;-46
2022/01/25 09:45:45;;;;;;;19.85;11.98;;;0.10;99.90;;;;;;4972628;28;20035;-44
2022/01/25 09:48:11;;;;;;;21.05;11.77;;;0.10;99.90;;;;;;4972660;28;20027;-48
2022/01/25 09:50:38;;;;;;;18.45;12.63;;;0.10;99.90;;;;;;4972825;28;20039;-51
2022/01/25 09:53:04;;;;;;;19.13;12.65;;;0.10;99.90;;;;;;4972518;28;20086;-44
2022/01/25 09:55:34;;;;;;;17.38;11.63;;;0.30;99.90;;;;;;4972404;28;20525;-44
2022/01/25 09:58:01;;;;;;;23.02;12.48;;;0.40;99.90;;;;;;4972596;28;20036;-44
2022/01/25 10:00:29;;;;;;;21.40;13.57;;;0.50;99.90;;;;;;4976113;28;20025;-47
2022/01/25 10:03:26;;;;;;;21.73;14.65;;;0.60;99.90;;;;;;4976227;28;20034;-43
2022/01/25 10:05:49;;;;;;;23.60;14.00;;;0.60;99.90;;;;;;4976202;28;20031;-47
2022/01/25 10:08:23;;;;;;;33.10;15.95;;;0.70;99.90;;;;;;4976429;28;20052;-43
2022/01/25 10:10:52;;;;;;;30.42;16.92;;;0.80;99.90;;;;;;4976228;28;20403;-45
2022/01/25 10:13:24;;;;;;;42.03;15.55;;;0.90;99.90;;;;;;4976017;28;20030;-42
2022/01/25 10:15:53;;;;;;;31.80;18.58;;;0.90;99.90;;;;;;4976331;28;20038;-46
2022/01/25 10:18:19;;;;;;;33.92;16.92;;;1.00;99.90;;;;;;4976364;28;20069;-47
2022/01/25 10:20:47;;;;;;;32.03;17.00;;;1.00;99.90;;;;;;4976338;28;20026;-46
2022/01/25 10:23:25;;;;;;;30.50;17.60;;;1.00;99.90;;;;;;4975882;28;20026;-45
2022/01/25 10:25:51;;;;;;;55.08;17.80;;;1.10;99.90;;;;;;4976237;28;20027;-44
2022/01/25 10:28:23;;;;;;;49.33;19.60;;;1.20;99.90;;;;;;4976511;28;20035;-49
2022/01/25 10:30:55;;;;;;;74.63;20.25;;;1.20;99.90;;;;;;4975702;28;20034;-45
2022/01/25 10:33:28;;;;;;;63.17;21.50;;;1.20;99.90;;;;;;4976006;28;20097;-43
2022/01/25 10:35:56;;;;;;;38.35;19.70;;;1.10;99.90;;;;;;4975925;28;20030;-44
2022/01/25 10:38:32;;;;;;;61.53;21.63;;;1.10;99.90;;;;;;4972533;28;20485;-44
2022/01/25 10:41:02;;;;;;;55.92;22.23;;;1.10;99.90;;;;;;4973881;28;20030;-46
2022/01/25 10:43:29;;;;;;;45.53;21.92;;;1.10;99.90;;;;;;4974540;28;20030;-45
2022/01/25 10:46:10;;;;;;;40.95;21.13;;;1.20;99.90;;;;;;4975052;28;20027;-42
2022/01/25 10:48:39;;;;;;;53.50;22.85;;;1.30;99.90;;;;;;4976202;28;20038;-46
2022/01/25 10:51:10;;;;;;;44.65;22.00;;;1.40;99.90;;;;;;4975109;28;20124;-47
2022/01/25 10:53:36;;;;;;;45.45;23.17;;;1.50;99.90;;;;;;4974191;28;20188;-43
2022/01/25 10:56:04;;;;;;;60.17;26.95;;;1.50;99.90;;;;;;4975554;28;20023;-47
2022/01/25 10:58:29;;;;;;;120.28;57.72;;;1.60;99.90;;;;;;4974643;28;20031;-43
2022/01/25 11:00:55;;;;;;;69.55;28.23;;;1.90;99.90;;;;;;4975552;28;20022;-49
2022/01/25 11:03:35;;;;;;;44.75;23.40;;;1.90;99.90;;;;;;4975027;28;20050;-47
2022/01/25 11:06:14;;;;;;;49.30;24.50;;;1.90;99.90;;;;;;4963972;28;20430;-50
2022/01/25 11:08:41;;;;;;;49.75;26.33;;;2.00;99.90;;;;;;4974437;28;20049;-42
2022/01/25 11:11:10;;;;;;;46.10;25.50;;;2.00;99.90;;;;;;4974767;28;20066;-46
2022/01/25 11:13:39;;;;;;;51.42;25.27;;;2.00;99.90;;;;;;4974669;28;20367;-45
2022/01/25 11:16:08;;;;;;;50.70;25.13;;;2.10;99.90;;;;;;4974987;28;20066;-46
2022/01/25 11:18:35;;;;;;;53.65;26.13;;;2.10;99.90;;;;;;4974749;28;20055;-46
2022/01/25 11:21:03;;;;;;;52.47;25.55;;;2.10;99.90;;;;;;4974375;28;20027;-44
2022/01/25 11:23:32;;;;;;;56.80;26.80;;;2.20;99.90;;;;;;4973293;28;20026;-45
2022/01/25 11:26:01;;;;;;;57.13;27.10;;;2.30;99.90;;;;;;4973375;28;20053;-49
2022/01/25 11:28:27;;;;;;;69.55;26.65;;;2.40;99.90;;;;;;4971139;28;20402;-50
2022/01/25 11:30:53;;;;;;;55.08;27.83;;;2.30;99.90;;;;;;4969922;28;20038;-45
2022/01/25 11:33:20;;;;;;;58.60;26.60;;;2.20;99.90;;;;;;4954821;28;20027;-47
2022/01/25 11:35:49;;;;;;;56.25;24.60;;;2.20;99.90;;;;;;4962043;28;20117;-52
2022/01/25 11:38:14;;;;;;;57.20;26.80;;;2.10;99.90;;;;;;4981775;28;20026;-49
2022/01/25 11:40:46;;;;;;;54.60;25.42;;;2.10;99.90;;;;;;4974707;28;20034;-52
2022/01/25 11:43:16;;;;;;;56.22;26.60;;;2.00;99.90;;;;;;4971296;28;20026;-47
2022/01/25 11:45:49;;;;;;;68.10;27.60;;;2.10;99.90;;;;;;4974518;28;20031;-49
2022/01/25 11:48:33;;;;;;;62.08;28.25;;;2.20;99.90;;;;;;4974659;28;20114;-53
2022/01/25 11:51:01;;;;;;;61.88;29.85;;;2.20;99.90;;;;;;4974384;28;20035;-47
2022/01/25 11:53:29;;;;;;;65.20;28.60;;;2.10;99.90;;;;;;4968766;28;20028;-50
2022/01/25 11:55:55;;;;;;;61.95;27.35;;;2.20;99.90;;;;;;4976461;28;20044;-49
2022/01/25 11:58:28;;;;;;;86.40;29.95;;;2.20;99.90;;;;;;4973485;28;20506;-55
2022/01/25 12:00:57;;;;;;;58.97;26.17;;;2.20;99.90;;;;;;4964668;28;20087;-51
2022/01/25 12:03:29;;;;;;;51.65;26.15;;;2.10;99.90;;;;;;4962634;28;20026;-45
2022/01/25 12:06:13;;;;;;;63.83;27.98;;;2.10;99.90;;;;;;4958835;28;20035;-45
2022/01/25 12:11:51;;;;;;;72.75;31.10;;;2.20;99.90;;;;;;4970905;28;20030;-49
2022/01/25 12:14:22;;;;;;;66.32;30.13;;;2.20;99.90;;;;;;4971890;28;20089;-48
2022/01/25 12:16:56;;;;;;;69.47;31.88;;;2.10;99.90;;;;;;4968543;28;20036;-52
2022/01/25 12:19:46;;;;;;;52.20;23.98;;;2.10;99.90;;;;;;4954197;29;20034;-48
2022/01/25 12:22:25;;;;;;;55.55;25.45;;;2.10;99.90;;;;;;4952494;28;20439;-50
2022/01/25 12:25:00;;;;;;;56.58;26.58;;;2.20;99.90;;;;;;4967731;28;20055;-47
2022/01/25 12:27:45;;;;;;;57.97;25.10;;;2.20;99.90;;;;;;4972263;28;20037;-49
2022/01/25 12:30:17;;;;;;;61.00;26.60;;;2.30;99.90;;;;;;4955213;28;20034;-47
2022/01/25 12:33:04;;;;;;;56.35;27.67;;;2.20;99.90;;;;;;4965360;28;20269;-45
2022/01/25 12:35:34;;;;;;;58.92;24.30;;;2.20;99.90;;;;;;5004789;28;20038;-49
2022/01/25 12:38:02;;;;;;;56.72;26.58;;;2.20;99.90;;;;;;4973861;28;20085;-49
2022/01/25 12:40:48;;;;;;;55.45;24.00;;;2.10;99.90;;;;;;4973272;28;20106;-49
2022/01/25 12:43:20;;;;;;;64.23;25.70;;;2.10;99.90;;;;;;4973541;28;20474;-51
2022/01/25 12:45:58;;;;;;;54.92;24.00;;;2.00;99.90;;;;;;4954919;28;20023;-47
2022/01/25 12:48:28;;;;;;;77.30;27.60;;;2.00;99.90;;;;;;4953813;28;20486;-44
2022/01/25 12:50:56;;;;;;;64.20;26.65;;;2.00;99.90;;;;;;4981247;22;20050;-45
2022/01/25 12:53:24;;;;;;;70.15;26.95;;;2.00;99.90;;;;;;5029357;28;20124;-46
2022/01/25 12:55:52;;;;;;;64.40;24.88;;;1.90;99.90;;;;;;5031353;28;20049;-41
2022/01/25 12:58:20;;;;;;;60.58;25.15;;;1.90;99.90;;;;;;5029389;28;20048;-44
2022/01/25 13:00:49;;;;;;;58.67;22.80;;;1.90;99.90;;;;;;5026915;28;20045;-43
2022/01/25 13:03:19;;;;;;;63.42;24.60;;;1.80;99.90;;;;;;5011465;28;20018;-44
2022/01/25 13:05:55;;;;;;;66.85;25.50;;;1.80;99.90;;;;;;5021314;28;20026;-46
2022/01/25 13:08:27;;;;;;;56.15;23.75;;;1.80;99.90;;;;;;5030825;28;20036;-40
2022/01/25 13:11:12;;;;;;;65.78;26.88;;;1.80;99.90;;;;;;5026652;28;20037;-42
2022/01/25 13:13:47;;;;;;;66.20;25.47;;;1.80;99.90;;;;;;5018228;28;20436;-44
2022/01/25 13:16:13;;;;;;;57.63;25.73;;;1.70;99.90;;;;;;5030991;28;20370;-42
2022/01/25 13:18:40;;;;;;;72.63;28.02;;;1.80;99.90;;;;;;5030305;28;20116;-44
2022/01/25 13:21:09;;;;;;;61.65;24.48;;;1.80;99.90;;;;;;5031537;28;20045;-38
2022/01/25 13:23:49;;;;;;;64.20;25.70;;;1.90;99.90;;;;;;5030984;28;20488;-38
2022/01/25 13:26:16;;;;;;;65.55;26.02;;;1.90;99.90;;;;;;5031475;28;20063;-49
2022/01/25 13:31:15;;;;;;;82.85;38.28;;;2.00;99.90;;;;;;5031259;28;20520;-47
2022/01/25 13:33:41;;;;;;;77.45;28.15;;;2.00;99.90;;;;;;5032262;28;20029;-47
2022/01/25 13:36:08;;;;;;;56.20;24.88;;;2.00;99.90;;;;;;5035229;28;20141;-38
2022/01/25 13:38:39;;;;;;;57.45;23.98;;;2.00;99.90;;;;;;5034967;28;20021;-42
2022/01/25 13:46:28;;;;;;;59.45;26.35;;;2.10;99.90;;;;;;5034956;28;20036;-43
2022/01/25 13:49:01;;;;;;;59.15;24.95;;;2.10;99.90;;;;;;5035177;28;20025;-43
2022/01/25 13:51:29;;;;;;;63.38;27.27;;;2.20;99.90;;;;;;5034502;28;20033;-42
2022/01/25 13:53:57;;;;;;;61.20;24.73;;;2.20;99.90;;;;;;5034629;28;20053;-43
2022/01/25 13:56:27;;;;;;;55.83;24.38;;;2.20;99.90;;;;;;5034822;28;20072;-39
2022/01/25 13:58:52;;;;;;;67.63;27.42;;;2.30;99.90;;;;;;5035249;28;20049;-41
2022/01/25 14:01:21;;;;;;;78.88;27.40;;;2.40;99.90;;;;;;5037611;28;20037;-43
2022/01/25 14:04:08;;;;;;;73.85;28.10;;;2.30;99.90;;;;;;5036286;28;20099;-44
2022/01/25 14:06:36;;;;;;;78.25;29.98;;;2.30;99.90;;;;;;5035017;28;20029;-43
2022/01/25 14:09:09;;;;;;;75.68;30.20;;;2.30;99.90;;;;;;5034803;28;20029;-44
2022/01/25 14:25:32;;;;;;;87.00;31.42;;;2.40;99.90;;;;;;5035030;28;20414;-47
2022/01/25 14:28:00;;;;;;;81.90;31.17;;;2.30;99.90;;;;;;5034286;28;20021;-46
2022/01/25 14:30:30;;;;;;;89.15;32.03;;;2.30;99.90;;;;;;5033959;28;20026;-45
2022/01/25 14:33:00;;;;;;;95.82;33.45;;;2.40;99.90;;;;;;5033871;28;20031;-38
2022/01/25 14:35:26;;;;;;;82.88;32.55;;;2.40;99.90;;;;;;5034228;28;20021;-41
2022/01/25 14:37:52;;;;;;;77.45;31.02;;;2.40;99.90;;;;;;5034144;28;20034;-43
2022/01/25 14:40:18;;;;;;;89.85;31.23;;;2.50;99.90;;;;;;5034040;28;20044;-43
2022/01/25 14:42:45;;;;;;;89.03;31.23;;;2.50;99.90;;;;;;5033751;28;20396;-39
2022/01/25 14:45:22;;;;;;;78.03;31.67;;;2.40;99.90;;;;;;5033615;28;20024;-38